Terminal Aerodrome Forecast
Issued by NWS Brownsville, TX

Home | Current Version | Previous Version | Text Only | Print | Product List | Glossary On
Versions: 1 2 3 4 5 6 7 8 9 10 11 12 13 14
000
FTUS44 KBRO 262019 AAA
TAFHRL
TAF AMD
KHRL 262019Z 2620/2718 09012KT P6SM SCT050
      TEMPO 2620/2621 VRB15KT -TSRA BKN050CB
     FM270200 VRB04KT P6SM FEW020=

USA.gov is the U.S. government's official web portal to all federal, state and local government web resources and services.